Time;durP1;ratioP1;P1;durP2;ratioP2;P2;SDS_P1;SDS_P2;PMS_P1;PMS_P2;Temp;Humidity;BMP_temperature;BMP_pressure;BME280_temperature;BME280_humidity;BME280_pressure;Samples;Min_cycle;Max_cycle;Signal;HPM_P1;HPM_P2
2021/05/05 00:00:30;;;;;;;4.63;3.10;;;;;;;10.41;88.43;94837.00;1052600;28;20012;-71
2021/05/05 00:01:01;;;;;;;7.35;3.75;;;;;;;10.45;88.80;94833.75;1052589;28;20050;-71
2021/05/05 00:01:31;;;;;;;4.80;3.53;;;;;;;10.43;89.26;94834.03;1052585;28;20521;-71
2021/05/05 00:02:02;;;;;;;4.73;3.60;;;;;;;10.41;90.21;94829.00;1052931;28;20024;-71
2021/05/05 00:02:32;;;;;;;7.07;3.50;;;;;;;10.43;89.19;94833.25;1052849;28;20036;-71
2021/05/05 00:03:03;;;;;;;5.50;3.60;;;;;;;10.40;89.53;94830.09;1052923;28;20020;-71
2021/05/05 00:03:33;;;;;;;6.07;3.53;;;;;;;10.37;89.58;94833.34;1052901;28;20020;-71
2021/05/05 00:04:04;;;;;;;5.90;3.40;;;;;;;10.41;89.73;94841.56;1052951;28;20468;-72
2021/05/05 00:04:34;;;;;;;5.13;3.50;;;;;;;10.40;88.91;94822.09;1052878;28;20016;-72
2021/05/05 00:05:05;;;;;;;8.50;3.50;;;;;;;10.41;89.38;94834.34;1056890;28;20027;-71
2021/05/05 00:05:36;;;;;;;6.23;3.57;;;;;;;10.44;89.24;94832.97;1056813;28;20015;-72
2021/05/05 00:06:06;;;;;;;6.83;3.67;;;;;;;10.41;89.37;94831.69;1056788;28;20023;-71
2021/05/05 00:06:37;;;;;;;5.90;3.57;;;;;;;10.40;89.59;94830.09;1052582;28;20590;-71
2021/05/05 00:07:07;;;;;;;5.07;3.20;;;;;;;10.40;89.44;94832.78;1052577;28;20016;-71
2021/05/05 00:07:38;;;;;;;5.27;3.70;;;;;;;10.40;89.37;94829.31;1052622;28;20128;-71
2021/05/05 00:08:08;;;;;;;4.57;3.27;;;;;;;10.40;89.49;94829.31;1052195;28;20495;-72
2021/05/05 00:08:38;;;;;;;6.07;3.50;;;;;;;10.37;89.58;94832.56;1056533;28;20035;-70
2021/05/05 00:09:09;;;;;;;6.50;3.50;;;;;;;10.37;89.44;94828.00;1052577;28;20040;-71
2021/05/05 00:09:39;;;;;;;7.17;3.80;;;;;;;10.36;89.78;94825.63;1052523;28;20024;-71
2021/05/05 00:10:10;;;;;;;6.23;4.17;;;;;;;10.33;90.25;94821.66;1052616;28;20133;-71
2021/05/05 00:10:41;;;;;;;7.72;3.83;;;;;;;10.32;90.94;94820.09;1052544;28;20020;-71
2021/05/05 00:11:11;;;;;;;4.97;3.50;;;;;;;10.32;91.48;94816.63;1052793;28;20449;-71
2021/05/05 00:11:42;;;;;;;6.57;3.73;;;;;;;10.30;91.43;94816.94;1052924;28;20027;-71
2021/05/05 00:12:12;;;;;;;6.80;3.50;;;;;;;10.29;91.25;94815.34;1052925;28;20008;-71
2021/05/05 00:12:43;;;;;;;5.43;3.23;;;;;;;10.27;90.12;94814.84;1052948;28;20031;-71
2021/05/05 00:13:14;;;;;;;6.03;3.83;;;;;;;10.27;89.89;94817.50;1052975;28;20020;-71
2021/05/05 00:13:44;;;;;;;4.47;3.70;;;;;;;10.27;90.08;94814.06;1052876;28;20037;-71
2021/05/05 00:14:15;;;;;;;5.63;3.70;;;;;;;10.29;90.56;94819.91;1052690;28;20152;-72
2021/05/05 00:14:46;;;;;;;4.80;3.50;;;;;;;10.28;91.41;94815.63;1052819;28;20023;-71
2021/05/05 00:15:18;;;;;;;4.90;3.60;;;;;;;10.23;90.78;94813.03;1052816;28;20019;-71
2021/05/05 00:15:48;;;;;;;5.25;3.67;;;;;;;10.24;90.90;94815.47;1052915;28;20385;-71
2021/05/05 00:16:19;;;;;;;5.13;3.53;;;;;;;10.21;91.51;94815.22;1052787;28;20098;-71
2021/05/05 00:16:49;;;;;;;5.33;3.77;;;;;;;10.21;91.76;94820.56;1052870;28;20019;-71
2021/05/05 00:17:20;;;;;;;7.53;3.50;;;;;;;10.22;91.58;94827.47;1052381;28;20035;-71
2021/05/05 00:17:50;;;;;;;4.93;3.70;;;;;;;10.20;91.04;94824.31;1052704;28;20038;-71
2021/05/05 00:18:21;;;;;;;5.43;3.67;;;;;;;10.17;90.33;94825.69;1052797;28;20052;-71
2021/05/05 00:18:51;;;;;;;8.13;3.70;;;;;;;10.16;90.55;94822.22;1052756;28;20020;-71
2021/05/05 00:19:21;;;;;;;6.90;3.70;;;;;;;10.18;91.02;94827.25;1052731;28;20019;-71
2021/05/05 00:19:52;;;;;;;6.60;4.00;;;;;;;10.19;91.43;94823.53;1052673;28;20027;-71
2021/05/05 00:20:22;;;;;;;5.67;3.80;;;;;;;10.18;91.00;94821.94;1052671;28;20533;-72
2021/05/05 00:20:53;;;;;;;4.20;3.40;;;;;;;10.14;91.56;94819.06;1052738;28;20020;-72
2021/05/05 00:21:24;;;;;;;5.35;3.63;;;;;;;10.13;91.48;94822.84;1052411;28;20073;-71
2021/05/05 00:21:54;;;;;;;6.67;3.53;;;;;;;10.15;90.96;94817.19;1052426;28;20481;-71
2021/05/05 00:22:24;;;;;;;7.17;3.57;;;;;;;10.15;90.98;94817.19;1052285;28;20081;-72
2021/05/05 00:22:55;;;;;;;4.63;3.47;;;;;;;10.15;91.83;94812.66;1052360;28;20360;-71
2021/05/05 00:23:25;;;;;;;5.90;3.83;;;;;;;10.16;91.15;94810.75;1052770;28;20434;-71
2021/05/05 00:23:56;;;;;;;5.60;3.57;;;;;;;10.15;91.75;94819.88;1052733;28;20127;-71
2021/05/05 00:24:26;;;;;;;5.53;3.57;;;;;;;10.12;91.70;94813.22;1052759;28;20020;-72
2021/05/05 00:24:57;;;;;;;7.33;3.80;;;;;;;10.10;91.90;94819.97;1052770;28;20016;-71
2021/05/05 00:25:28;;;;;;;8.33;3.50;;;;;;;10.06;91.85;94808.28;1052747;28;20095;-71
2021/05/05 00:25:58;;;;;;;6.25;3.42;;;;;;;10.07;90.48;94807.97;1056654;28;20028;-71
2021/05/05 00:26:29;;;;;;;5.20;3.60;;;;;;;10.08;91.68;94814.09;1056595;28;20042;-71
2021/05/05 00:26:59;;;;;;;7.50;3.90;;;;;;;10.11;91.26;94819.66;1056645;28;20019;-71
2021/05/05 00:27:29;;;;;;;5.63;3.80;;;;;;;10.13;90.38;94811.34;1056401;28;20078;-71
2021/05/05 00:28:00;;;;;;;8.27;3.83;;;;;;;10.13;90.65;94808.66;1052681;28;20033;-70
2021/05/05 00:28:30;;;;;;;8.33;3.50;;;;;;;10.10;90.48;94810.06;1052731;28;20465;-72
2021/05/05 00:29:01;;;;;;;5.60;3.73;;;;;;;10.11;91.35;94810.84;1052669;28;20027;-71
2021/05/05 00:29:31;;;;;;;5.57;3.27;;;;;;;10.08;90.85;94811.44;1052684;28;20020;-71
2021/05/05 00:30:02;;;;;;;4.90;3.47;;;;;;;10.08;90.69;94817.59;1052705;28;20530;-71
2021/05/05 00:30:32;;;;;;;4.80;3.50;;;;;;;10.05;90.21;94815.50;1052801;28;20043;-71
2021/05/05 00:31:03;;;;;;;8.37;3.60;;;;;;;10.06;90.52;94808.28;1052681;28;20024;-71
2021/05/05 00:31:34;;;;;;;4.67;3.20;;;;;;;10.07;90.50;94820.53;1052754;28;20020;-70
2021/05/05 00:32:04;;;;;;;10.20;3.83;;;;;;;10.05;90.10;94812.81;1052701;28;20373;-71
2021/05/05 00:32:34;;;;;;;7.40;3.57;;;;;;;10.03;90.46;94816.88;1052717;28;20164;-71
2021/05/05 00:33:05;;;;;;;4.77;3.40;;;;;;;10.06;90.84;94817.06;1052713;28;20024;-72
2021/05/05 00:33:35;;;;;;;7.77;3.77;;;;;;;10.05;91.20;94812.81;1052763;28;20104;-71
2021/05/05 00:34:06;;;;;;;5.47;3.77;;;;;;;10.08;91.37;94806.09;1052224;28;20375;-71
2021/05/05 00:34:36;;;;;;;6.10;3.70;;;;;;;10.05;91.93;94804.81;1052364;28;20473;-71
2021/05/05 00:35:07;;;;;;;6.07;3.20;;;;;;;10.06;91.16;94810.94;1052389;28;20392;-71
2021/05/05 00:35:37;;;;;;;4.63;3.23;;;;;;;10.07;90.84;94799.19;1052429;28;20048;-71
2021/05/05 00:36:08;;;;;;;7.10;3.63;;;;;;;10.07;91.13;94807.19;1052243;28;20332;-71
2021/05/05 00:36:38;;;;;;;6.70;3.03;;;;;;;10.06;91.18;94801.06;1052379;28;20028;-71
2021/05/05 00:37:09;;;;;;;4.80;3.30;;;;;;;10.07;90.75;94812.53;1052469;28;20028;-72
2021/05/05 00:37:40;;;;;;;5.17;3.50;;;;;;;10.02;91.15;94801.94;1052421;28;20380;-72
2021/05/05 00:38:10;;;;;;;6.28;3.20;;;;;;;10.02;90.82;94796.59;1052640;28;20028;-71
2021/05/05 00:38:41;;;;;;;5.97;3.40;;;;;;;10.04;90.73;94805.13;1052729;28;20027;-71
2021/05/05 00:39:11;;;;;;;5.37;3.30;;;;;;;10.04;90.87;94803.25;1052662;28;20465;-70
2021/05/05 00:39:42;;;;;;;7.23;3.40;;;;;;;10.03;90.87;94798.19;1052738;28;20020;-70
2021/05/05 00:40:12;;;;;;;5.97;3.40;;;;;;;10.03;90.46;94798.19;1052608;28;20020;-69
2021/05/05 00:40:43;;;;;;;6.77;3.17;;;;;;;10.00;91.38;94790.78;1052699;28;20412;-70
2021/05/05 00:41:13;;;;;;;4.03;2.73;;;;;;;10.00;91.30;94806.78;1052773;28;20016;-69
2021/05/05 00:41:44;;;;;;;4.37;2.80;;;;;;;9.97;91.71;94799.38;1052804;28;20445;-69
2021/05/05 00:42:14;;;;;;;4.80;3.27;;;;;;;9.96;91.52;94805.78;1052608;28;20043;-69
2021/05/05 00:42:44;;;;;;;4.13;2.90;;;;;;;9.95;90.85;94797.00;1052720;28;20020;-69
2021/05/05 00:43:15;;;;;;;4.73;2.90;;;;;;;9.95;91.45;94802.34;1052709;28;20039;-71
2021/05/05 00:43:45;;;;;;;4.23;3.10;;;;;;;9.95;90.97;94790.88;1052560;28;20070;-70
2021/05/05 00:44:17;;;;;;;5.87;3.00;;;;;;;9.93;90.24;94788.50;1052664;28;20141;-70
2021/05/05 00:44:47;;;;;;;7.35;3.22;;;;;;;9.93;89.77;94787.69;1052307;28;20020;-70
2021/05/05 00:45:18;;;;;;;6.00;3.57;;;;;;;9.95;90.64;94791.66;1052489;28;20488;-71
2021/05/05 00:45:48;;;;;;;5.77;3.10;;;;;;;9.93;90.94;94782.34;1052343;28;20458;-70
2021/05/05 00:46:18;;;;;;;4.63;3.10;;;;;;;9.93;90.90;94787.69;1052262;28;20452;-70
2021/05/05 00:46:49;;;;;;;5.00;3.10;;;;;;;9.93;90.61;94793.84;1052716;28;20032;-70
2021/05/05 00:47:19;;;;;;;6.77;3.50;;;;;;;9.95;91.00;94785.53;1052618;28;20016;-70
2021/05/05 00:47:50;;;;;;;6.13;3.10;;;;;;;9.93;91.20;94782.34;1052339;28;20020;-70
2021/05/05 00:48:20;;;;;;;6.43;3.37;;;;;;;9.93;91.65;94793.03;1052066;28;20020;-70
2021/05/05 00:48:51;;;;;;;5.97;3.10;;;;;;;9.90;91.45;94789.88;1048148;28;20035;-70
2021/05/05 00:49:21;;;;;;;6.20;3.47;;;;;;;9.92;92.40;94791.44;1048237;28;20023;-71
2021/05/05 00:49:52;;;;;;;7.67;3.40;;;;;;;9.92;91.29;94786.91;1052418;28;20027;-71
2021/05/05 00:50:23;;;;;;;5.53;3.42;;;;;;;9.92;91.50;94791.44;1052267;28;20473;-70
2021/05/05 00:50:54;;;;;;;4.47;3.10;;;;;;;9.88;91.79;94791.25;1052310;28;20016;-70
2021/05/05 00:51:24;;;;;;;7.68;3.67;;;;;;;9.88;91.69;94792.06;1052366;28;20020;-70
2021/05/05 00:51:54;;;;;;;5.80;3.40;;;;;;;9.92;91.98;94791.44;1052390;28;20023;-70
2021/05/05 00:52:25;;;;;;;6.43;3.90;;;;;;;9.89;92.45;94785.63;1048270;28;20024;-69
2021/05/05 00:52:56;;;;;;;7.77;3.90;;;;;;;9.93;91.66;94783.16;1052340;28;20020;-70
2021/05/05 00:53:26;;;;;;;8.00;4.33;;;;;;;9.94;92.16;94787.41;1052315;28;20472;-71
2021/05/05 00:53:56;;;;;;;4.33;3.10;;;;;;;9.92;91.06;94788.78;1052335;28;20344;-71
2021/05/05 00:54:27;;;;;;;6.53;3.67;;;;;;;9.93;91.52;94785.00;1052645;28;20434;-71
2021/05/05 00:54:57;;;;;;;5.70;3.37;;;;;;;9.88;91.83;94793.94;1052593;28;20031;-70
2021/05/05 00:55:28;;;;;;;4.67;3.00;;;;;;;9.88;92.11;94796.59;1052643;28;20461;-70
2021/05/05 00:55:58;;;;;;;6.17;3.50;;;;;;;9.88;92.10;94786.72;1052730;28;20062;-71
2021/05/05 00:56:29;;;;;;;7.47;3.50;;;;;;;9.90;91.99;94799.75;1052643;28;20032;-71
2021/05/05 00:56:59;;;;;;;7.47;3.13;;;;;;;9.88;92.54;94792.06;1052600;28;20353;-71
2021/05/05 00:57:29;;;;;;;5.30;2.90;;;;;;;9.89;93.01;94798.19;1043863;28;20021;-71
2021/05/05 00:58:00;;;;;;;6.50;3.33;;;;;;;9.84;92.66;94796.38;1043969;28;20025;-71
2021/05/05 00:58:30;;;;;;;5.00;2.90;;;;;;;9.82;92.88;94798.53;1043868;28;20539;-71
2021/05/05 00:59:01;;;;;;;5.73;3.50;;;;;;;9.81;92.88;94802.31;1043972;28;20020;-71
2021/05/05 00:59:31;;;;;;;4.60;3.33;;;;;;;9.82;93.40;94790.53;1052254;28;20020;-72
2021/05/05 01:00:04;;;;;;;4.90;3.10;;;;;;;9.79;93.35;94785.81;1052383;28;20024;-71
2021/05/05 01:00:34;;;;;;;4.68;3.22;;;;;;;9.79;93.89;94796.47;1052647;28;20013;-71
2021/05/05 01:01:05;;;;;;;5.93;3.27;;;;;;;9.77;93.71;94790.63;1052629;28;20031;-71
2021/05/05 01:01:35;;;;;;;6.17;3.40;;;;;;;9.78;94.23;94802.13;1052586;28;20095;-70
2021/05/05 01:02:05;;;;;;;5.77;3.53;;;;;;;9.75;93.25;94797.34;1052690;28;20020;-70
2021/05/05 01:02:36;;;;;;;5.03;3.60;;;;;;;9.74;94.43;94796.56;1052639;28;20329;-70
2021/05/05 01:03:07;;;;;;;5.40;3.60;;;;;;;9.75;94.38;94797.34;1052603;28;20055;-70
2021/05/05 01:03:37;;;;;;;6.80;3.77;;;;;;;9.70;94.30;94803.56;1052710;28;20023;-70
2021/05/05 01:04:09;;;;;;;5.27;3.30;;;;;;;9.72;94.14;94795.25;1052617;28;20067;-71
2021/05/05 01:04:39;;;;;;;6.30;3.40;;;;;;;9.70;94.34;94787.56;1056519;28;20073;-70
2021/05/05 01:05:10;;;;;;;6.30;3.67;;;;;;;9.72;95.16;94792.59;1056447;28;20108;-70
2021/05/05 01:05:41;;;;;;;7.25;3.80;;;;;;;9.69;95.08;94796.66;1056397;28;20101;-70
2021/05/05 01:06:11;;;;;;;8.10;3.50;;;;;;;9.68;95.61;94797.75;1056295;28;20580;-70
2021/05/05 01:06:42;;;;;;;5.30;3.50;;;;;;;9.69;95.19;94793.97;1052707;28;20140;-71
2021/05/05 01:07:12;;;;;;;6.83;3.50;;;;;;;9.70;95.52;94792.91;1052553;28;20024;-70
2021/05/05 01:07:43;;;;;;;5.93;3.50;;;;;;;9.67;95.62;94785.47;1052676;28;20397;-70
2021/05/05 01:08:15;;;;;;;5.73;3.57;;;;;;;9.65;95.54;94790.31;1052634;28;20024;-70
2021/05/05 01:08:46;;;;;;;10.75;3.72;;;;;;;9.63;95.74;94774.59;1052678;28;20020;-70
2021/05/05 01:09:17;;;;;;;7.43;3.40;;;;;;;9.62;95.63;94783.69;1052512;28;20388;-71
2021/05/05 01:09:47;;;;;;;5.77;3.73;;;;;;;9.61;95.59;94783.97;1052609;28;20024;-71
2021/05/05 01:10:17;;;;;;;5.83;3.93;;;;;;;9.60;96.16;94782.41;1052515;28;20024;-70
2021/05/05 01:10:49;;;;;;;5.00;3.37;;;;;;;9.55;96.15;94780.59;1056538;28;20020;-70
2021/05/05 01:11:19;;;;;;;7.00;3.40;;;;;;;9.51;96.86;94784.13;1056394;28;20027;-70
2021/05/05 01:11:50;;;;;;;7.27;3.83;;;;;;;9.55;97.86;94787.81;1056612;28;20476;-69
2021/05/05 01:12:20;;;;;;;7.63;3.80;;;;;;;9.56;98.44;94786.72;1056307;28;20032;-70
2021/05/05 01:12:51;;;;;;;6.97;3.73;;;;;;;9.54;96.80;94780.91;1052517;28;20020;-69
2021/05/05 01:13:21;;;;;;;8.97;3.83;;;;;;;9.53;97.50;94782.78;1052505;28;20023;-69
2021/05/05 01:13:51;;;;;;;5.57;3.67;;;;;;;9.50;97.93;94787.91;1052402;28;20027;-69
2021/05/05 01:14:22;;;;;;;5.63;3.50;;;;;;;9.48;97.83;94784.75;1052580;28;20024;-70
2021/05/05 01:14:53;;;;;;;7.13;3.37;;;;;;;9.46;97.32;94778.88;1052565;28;20031;-69
2021/05/05 01:15:23;;;;;;;5.23;3.47;;;;;;;9.44;97.79;94773.06;1052486;28;20070;-69
2021/05/05 01:15:53;;;;;;;5.23;3.37;;;;;;;9.45;97.34;94785.31;1052483;28;20032;-69
2021/05/05 01:16:24;;;;;;;5.20;3.30;;;;;;;9.41;97.41;94786.97;1052529;28;20043;-69
2021/05/05 01:16:54;;;;;;;5.47;3.67;;;;;;;9.41;97.07;94786.97;1052523;28;20103;-70
2021/05/05 01:17:25;;;;;;;5.80;3.47;;;;;;;9.43;98.57;94790.16;1052540;28;20020;-69
2021/05/05 01:17:55;;;;;;;5.20;3.53;;;;;;;9.41;97.05;94784.31;1052372;28;20027;-69
2021/05/05 01:18:26;;;;;;;4.80;3.10;;;;;;;9.38;97.59;94788.38;1052304;28;20024;-69
2021/05/05 01:18:56;;;;;;;4.20;3.10;;;;;;;9.40;98.31;94782.72;1052311;28;20341;-69
2021/05/05 01:19:26;;;;;;;4.77;3.27;;;;;;;9.37;98.35;94790.25;1052286;28;20425;-69
2021/05/05 01:19:57;;;;;;;5.20;3.30;;;;;;;9.36;98.32;94793.97;1052627;28;20056;-69
2021/05/05 01:20:28;;;;;;;7.00;3.53;;;;;;;9.36;97.84;94785.19;1052619;28;20027;-70
2021/05/05 01:20:59;;;;;;;6.13;3.78;;;;;;;9.33;98.19;94794.56;1052657;28;20473;-69
2021/05/05 01:21:29;;;;;;;6.60;3.40;;;;;;;9.35;97.84;94797.72;1052591;28;20103;-69
2021/05/05 01:22:00;;;;;;;5.80;3.30;;;;;;;9.32;98.10;94781.53;1052544;28;20460;-69
2021/05/05 01:22:30;;;;;;;5.60;3.47;;;;;;;9.32;99.48;94790.31;1052516;28;20016;-69
2021/05/05 01:23:01;;;;;;;4.40;3.20;;;;;;;9.32;99.71;94795.66;1052328;28;20024;-69
2021/05/05 01:23:31;;;;;;;7.03;3.70;;;;;;;9.32;100.00;94792.19;1052266;28;20012;-69
2021/05/05 01:24:02;;;;;;;9.00;4.00;;;;;;;9.31;100.00;94793.25;1052278;28;20516;-69
2021/05/05 01:24:33;;;;;;;5.78;3.65;;;;;;;9.30;100.00;94779.13;1052205;28;20027;-69
2021/05/05 01:25:05;;;;;;;6.35;3.92;;;;;;;9.27;100.00;94784.28;1052638;28;20528;-70
2021/05/05 01:25:35;;;;;;;5.65;3.47;;;;;;;9.23;100.00;94781.41;1052525;28;20027;-68
2021/05/05 01:26:06;;;;;;;6.67;3.20;;;;;;;9.25;100.00;94783.75;1052577;28;20115;-69
2021/05/05 01:26:37;;;;;;;4.90;3.47;;;;;;;9.22;100.00;94782.47;1052519;28;20122;-68
2021/05/05 01:27:08;;;;;;;4.57;3.63;;;;;;;9.18;100.00;94772.69;1052597;28;20027;-68
2021/05/05 01:27:40;;;;;;;5.50;3.80;;;;;;;9.14;100.00;94769.78;1052604;28;20030;-69
2021/05/05 01:28:10;;;;;;;5.00;3.50;;;;;;;9.11;100.00;94768.53;1052628;28;20052;-68
2021/05/05 01:28:42;;;;;;;5.20;3.63;;;;;;;9.10;100.00;94768.78;1052566;28;20017;-69
2021/05/05 01:29:12;;;;;;;6.95;4.20;;;;;;;9.10;100.00;94774.13;1052130;28;20032;-69
2021/05/05 01:29:43;;;;;;;6.23;3.90;;;;;;;9.10;100.00;94766.13;1052218;28;20039;-69
2021/05/05 01:30:15;;;;;;;5.40;4.00;;;;;;;9.08;100.00;94773.63;1052285;28;20035;-69
2021/05/05 01:30:46;;;;;;;7.03;4.07;;;;;;;9.11;100.00;94771.19;1052269;28;20016;-68
2021/05/05 01:31:17;;;;;;;6.60;3.80;;;;;;;9.12;100.00;94769.31;1052581;28;20035;-69
2021/05/05 01:31:47;;;;;;;6.40;3.53;;;;;;;9.14;100.00;94782.34;1052620;28;20362;-69
2021/05/05 01:32:17;;;;;;;8.03;3.40;;;;;;;9.14;100.00;94774.34;1052553;28;20024;-69
2021/05/05 01:32:48;;;;;;;5.60;3.80;;;;;;;9.10;100.00;94774.91;1052525;28;20472;-69
2021/05/05 01:33:19;;;;;;;5.00;3.30;;;;;;;9.14;100.00;94777.78;1052233;28;20028;-69
2021/05/05 01:33:49;;;;;;;4.40;3.40;;;;;;;9.14;100.00;94779.66;1048062;28;20446;-68
2021/05/05 01:34:20;;;;;;;4.97;3.47;;;;;;;9.12;100.00;94777.31;1048139;28;20029;-68
2021/05/05 01:34:51;;;;;;;6.07;3.60;;;;;;;9.08;100.00;94782.41;1044012;28;20455;-69
2021/05/05 01:35:24;;;;;;;7.63;3.65;;;;;;;9.06;100.00;94779.25;1044097;28;20139;-69
2021/05/05 01:35:54;;;;;;;7.30;3.72;;;;;;;9.08;100.00;94776.28;1047943;28;20420;-68
2021/05/05 01:36:28;;;;;;;5.73;4.00;;;;;;;9.07;100.00;94778.16;1048553;28;20048;-68
2021/05/05 01:36:58;;;;;;;6.82;3.90;;;;;;;9.09;100.00;94775.19;1048978;28;20076;-69
2021/05/05 01:37:28;;;;;;;8.23;4.30;;;;;;;9.06;100.00;94778.47;1048012;28;20476;-69
2021/05/05 01:37:59;;;;;;;5.23;3.77;;;;;;;9.06;100.00;94776.59;1047859;28;20055;-69
2021/05/05 01:38:29;;;;;;;8.53;4.00;;;;;;;9.09;100.00;94778.66;1048129;28;20024;-69
2021/05/05 01:39:00;;;;;;;7.70;4.23;;;;;;;9.10;100.00;94774.13;1052244;28;20488;-68
2021/05/05 01:39:30;;;;;;;7.40;3.73;;;;;;;9.09;100.00;94784.00;1052968;28;20028;-69
2021/05/05 01:40:02;;;;;;;7.00;3.60;;;;;;;9.09;100.00;94780.53;1053290;28;20579;-68
2021/05/05 01:40:33;;;;;;;6.80;4.35;;;;;;;9.07;100.00;94775.50;1053346;28;20020;-68
2021/05/05 01:41:04;;;;;;;6.67;4.10;;;;;;;9.09;100.00;94777.88;1053330;28;20012;-68
2021/05/05 01:41:34;;;;;;;6.80;4.10;;;;;;;9.11;100.00;94778.38;1053411;28;20028;-69
2021/05/05 01:42:05;;;;;;;7.57;3.93;;;;;;;9.10;100.00;94782.13;1053459;28;20073;-68
2021/05/05 01:42:35;;;;;;;4.73;3.60;;;;;;;9.12;100.00;94777.31;1053378;28;20031;-68
2021/05/05 01:43:06;;;;;;;6.80;4.23;;;;;;;9.12;100.00;94771.97;1053373;28;20016;-68
2021/05/05 01:43:36;;;;;;;6.50;4.37;;;;;;;9.08;100.00;94774.41;1053510;28;20035;-68
2021/05/05 01:44:07;;;;;;;5.77;3.93;;;;;;;9.05;100.00;94774.19;1053345;28;20016;-68
2021/05/05 01:44:39;;;;;;;8.37;4.47;;;;;;;9.01;100.00;94770.53;1052847;28;20039;-68
2021/05/05 01:45:10;;;;;;;6.88;4.20;;;;;;;8.98;100.00;94763.13;1052953;28;20376;-68
2021/05/05 01:45:40;;;;;;;6.00;4.20;;;;;;;9.03;100.00;94776.38;1052980;28;20054;-69
2021/05/05 01:46:11;;;;;;;6.80;4.30;;;;;;;9.02;100.00;94772.13;1053087;28;20550;-68
2021/05/05 01:46:47;;;;;;;7.60;4.30;;;;;;;9.00;100.00;94777.72;1053214;28;20469;-68
2021/05/05 01:47:17;;;;;;;6.78;4.00;;;;;;;9.01;100.00;94776.66;1053494;28;20028;-68
2021/05/05 01:47:53;;;;;;;8.73;4.30;;;;;;;8.99;100.00;94776.16;1053432;28;20466;-68
2021/05/05 01:48:24;;;;;;;9.13;4.50;;;;;;;8.97;100.00;94772.19;1053399;28;20031;-69
2021/05/05 01:48:54;;;;;;;6.00;3.80;;;;;;;8.95;100.00;94774.34;1053327;28;20488;-68
2021/05/05 01:49:25;;;;;;;7.37;4.47;;;;;;;8.88;100.00;94776.59;1053421;28;20034;-68
2021/05/05 01:49:55;;;;;;;9.07;4.43;;;;;;;8.91;100.00;94774.16;1053054;28;20340;-69
2021/05/05 01:50:26;;;;;;;6.37;4.50;;;;;;;8.94;100.00;94778.88;1053101;28;20063;-68
2021/05/05 01:50:56;;;;;;;6.70;4.60;;;;;;;8.98;100.00;94773.78;1053128;28;20484;-68
2021/05/05 01:51:26;;;;;;;8.47;4.37;;;;;;;8.97;100.00;94769.53;1048928;28;20198;-68
2021/05/05 01:52:00;;;;;;;7.13;4.57;;;;;;;8.98;100.00;94773.78;1052980;28;20365;-68
2021/05/05 01:52:31;;;;;;;6.90;3.92;;;;;;;8.96;100.00;94767.97;1044623;28;20064;-68
2021/05/05 01:53:01;;;;;;;8.03;4.13;;;;;;;8.99;100.00;94767.34;1045270;28;20095;-68
2021/05/05 01:53:32;;;;;;;7.73;4.83;;;;;;;8.99;100.00;94765.47;1048831;28;20528;-68
2021/05/05 01:54:02;;;;;;;6.20;4.20;;;;;;;8.99;100.00;94768.16;1045404;28;20393;-69
2021/05/05 01:54:34;;;;;;;7.77;4.67;;;;;;;8.94;100.00;94762.91;1053040;28;20027;-69
2021/05/05 01:55:05;;;;;;;5.05;4.43;;;;;;;8.89;100.00;94764.84;1052984;28;20090;-68
2021/05/05 01:55:36;;;;;;;7.43;4.35;;;;;;;8.91;100.00;94762.69;1053024;28;20027;-68
2021/05/05 01:56:06;;;;;;;7.37;4.40;;;;;;;8.88;100.00;94758.72;1053421;28;20040;-68
2021/05/05 01:56:37;;;;;;;7.50;4.90;;;;;;;8.85;100.00;94756.63;1053399;28;20035;-69
2021/05/05 01:57:24;;;;;;;7.67;4.67;;;;;;;8.85;100.00;94761.97;1053346;28;20031;-68
2021/05/05 01:57:55;;;;;;;8.32;4.60;;;;;;;8.89;100.00;94754.19;1053356;28;20038;-69
2021/05/05 01:58:25;;;;;;;6.80;4.80;;;;;;;8.84;100.00;94761.16;1053397;28;20031;-69
2021/05/05 01:58:56;;;;;;;7.10;5.10;;;;;;;8.76;100.00;94766.38;1053414;28;20031;-68
2021/05/05 01:59:26;;;;;;;8.23;5.03;;;;;;;8.75;100.00;94759.44;1053215;28;20039;-68
2021/05/05 01:59:57;;;;;;;7.47;5.07;;;;;;;8.79;100.00;94763.91;1053393;28;20031;-68
2021/05/05 02:00:28;;;;;;;6.37;4.60;;;;;;;8.80;100.00;94765.50;1053312;28;20034;-68
2021/05/05 02:01:00;;;;;;;6.32;4.90;;;;;;;8.82;100.00;94766.00;1053000;28;20057;-68
2021/05/05 02:01:30;;;;;;;9.13;4.88;;;;;;;8.78;100.00;94764.19;1052967;28;20024;-68
2021/05/05 02:02:01;;;;;;;8.77;4.63;;;;;;;8.81;100.00;94768.97;1053005;28;20042;-68
2021/05/05 02:02:31;;;;;;;13.10;5.27;;;;;;;8.82;100.00;94768.66;1049112;28;20021;-68
2021/05/05 02:03:02;;;;;;;8.83;5.57;;;;;;;8.82;100.00;94760.69;1053165;28;20408;-69
2021/05/05 02:03:32;;;;;;;7.73;5.07;;;;;;;8.80;100.00;94765.50;1052965;28;20039;-68
2021/05/05 02:04:03;;;;;;;8.10;5.00;;;;;;;8.79;100.00;94766.56;1053123;28;20377;-68
2021/05/05 02:04:33;;;;;;;7.67;5.07;;;;;;;8.77;100.00;94767.94;1053263;28;20027;-68
2021/05/05 02:05:04;;;;;;;10.03;5.30;;;;;;;8.77;100.00;94755.41;1053417;28;20019;-68
2021/05/05 02:05:34;;;;;;;10.57;5.68;;;;;;;8.79;100.00;94766.56;1052997;28;20103;-68
2021/05/05 02:06:05;;;;;;;8.17;5.00;;;;;;;8.76;100.00;94761.84;1053071;28;20012;-68
2021/05/05 02:06:35;;;;;;;8.10;5.10;;;;;;;8.79;100.00;94761.25;1052904;28;20027;-69
2021/05/05 02:07:06;;;;;;;9.13;5.00;;;;;;;8.82;100.00;94765.22;1048961;28;20109;-68
2021/05/05 02:07:37;;;;;;;5.97;4.40;;;;;;;8.82;100.00;94759.88;1052941;28;20024;-68
2021/05/05 02:08:07;;;;;;;8.73;4.70;;;;;;;8.81;100.00;94759.09;1053025;28;20031;-68
2021/05/05 02:08:37;;;;;;;8.57;5.00;;;;;;;8.81;100.00;94761.75;1053109;28;20016;-68
2021/05/05 02:09:08;;;;;;;10.33;5.00;;;;;;;8.77;100.00;94757.28;1053434;28;20023;-69
2021/05/05 02:09:39;;;;;;;7.80;4.90;;;;;;;8.76;100.00;94758.38;1053284;28;20031;-68
2021/05/05 02:10:11;;;;;;;5.40;4.33;;;;;;;8.76;100.00;94758.38;1053382;28;20520;-68
2021/05/05 02:10:45;;;;;;;6.70;4.45;;;;;;;8.80;100.00;94754.84;1053353;28;20032;-68
2021/05/05 02:11:16;;;;;;;8.75;5.68;;;;;;;8.80;100.00;94756.69;1053345;28;20020;-68
2021/05/05 02:11:47;;;;;;;6.93;4.78;;;;;;;8.80;100.00;94762.03;1053347;28;20027;-68
2021/05/05 02:12:17;;;;;;;9.10;5.20;;;;;;;8.82;100.00;94750.03;1052887;28;20044;-68
2021/05/05 02:12:48;;;;;;;9.37;4.97;;;;;;;8.79;100.00;94763.13;1048889;28;20035;-69
2021/05/05 02:13:19;;;;;;;12.47;6.03;;;;;;;8.80;100.00;94762.03;1048805;28;20544;-68
2021/05/05 02:13:49;;;;;;;8.90;5.67;;;;;;;8.80;100.00;94760.19;1048925;28;20063;-69
2021/05/05 02:14:20;;;;;;;9.63;5.77;;;;;;;8.78;100.00;94757.00;1052908;28;20028;-68
2021/05/05 02:14:50;;;;;;;7.70;5.43;;;;;;;8.76;100.00;94761.84;1053283;28;20469;-68
2021/05/05 02:15:21;;;;;;;6.20;5.10;;;;;;;8.77;100.00;94765.28;1053311;28;20465;-68
2021/05/05 02:15:52;;;;;;;12.30;4.93;;;;;;;8.79;100.00;94760.44;1052928;28;20024;-69
2021/05/05 02:16:22;;;;;;;11.07;5.57;;;;;;;8.80;100.00;94762.84;1052922;28;20027;-68
2021/05/05 02:16:54;;;;;;;5.97;5.10;;;;;;;8.80;100.00;94749.53;1053012;28;20024;-69
2021/05/05 02:17:25;;;;;;;8.10;4.80;;;;;;;8.76;100.00;94751.19;1052922;28;20085;-68
2021/05/05 02:17:55;;;;;;;6.00;4.20;;;;;;;8.75;100.00;94752.25;1053266;28;20522;-68
2021/05/05 02:18:26;;;;;;;8.13;4.47;;;;;;;8.77;100.00;94750.09;1053274;28;20019;-68
2021/05/05 02:18:56;;;;;;;6.53;4.93;;;;;;;8.78;100.00;94757.00;1053329;28;20043;-69
2021/05/05 02:19:27;;;;;;;9.10;5.40;;;;;;;8.78;100.00;94749.00;1053374;28;20024;-68
2021/05/05 02:19:57;;;;;;;6.43;5.20;;;;;;;8.73;100.00;94749.06;1053041;28;20027;-68
2021/05/05 02:20:28;;;;;;;7.83;5.27;;;;;;;8.71;100.00;94753.13;1052889;28;20073;-68
2021/05/05 02:20:58;;;;;;;9.07;5.77;;;;;;;8.70;100.00;94747.00;1052913;28;20016;-68
2021/05/05 02:21:28;;;;;;;7.80;5.30;;;;;;;8.72;100.00;94747.50;1052864;28;20024;-68
2021/05/05 02:21:59;;;;;;;6.97;5.27;;;;;;;8.72;100.00;94739.50;1053312;28;20024;-67
2021/05/05 02:22:29;;;;;;;6.50;4.30;;;;;;;8.66;100.00;94740.66;1053289;28;20376;-68
2021/05/05 02:23:00;;;;;;;7.33;5.10;;;;;;;8.67;100.00;94744.91;1053351;28;20024;-68
2021/05/05 02:23:30;;;;;;;8.20;5.07;;;;;;;8.63;100.00;94738.56;1053264;28;20464;-69
2021/05/05 02:24:00;;;;;;;9.73;5.30;;;;;;;8.67;100.00;94744.91;1053341;28;20061;-68
2021/05/05 02:24:31;;;;;;;7.40;5.27;;;;;;;8.71;100.00;94743.25;1053216;28;20023;-69
2021/05/05 02:25:02;;;;;;;7.80;5.53;;;;;;;8.74;100.00;94741.88;1053303;28;20045;-68
2021/05/05 02:25:32;;;;;;;9.77;5.72;;;;;;;8.73;100.00;94753.63;1053337;28;20027;-68